createdAt,value
2018-12-18T00:01:11.591Z,82.00
2018-12-18T00:03:40.729Z,81.60
2018-12-18T00:06:09.862Z,82.90
2018-12-18T00:08:38.927Z,83.10
2018-12-18T00:11:11.407Z,83.90
2018-12-18T00:13:40.553Z,81.90
2018-12-18T00:16:09.612Z,82.00
2018-12-18T00:18:38.735Z,82.20
2018-12-18T00:21:08.112Z,83.60
2018-12-18T00:23:37.169Z,83.90
2018-12-18T00:26:06.315Z,84.10
2018-12-18T00:28:35.526Z,85.40
2018-12-18T00:31:04.591Z,86.70
2018-12-18T00:33:33.641Z,86.70
2018-12-18T00:36:02.792Z,84.60
2018-12-18T00:38:31.953Z,83.70
2018-12-18T00:41:01.076Z,85.40
2018-12-18T00:43:30.300Z,87.20
2018-12-18T00:45:59.482Z,85.70
2018-12-18T00:48:28.523Z,85.30
2018-12-18T00:50:57.668Z,82.50
2018-12-18T00:53:26.836Z,82.80
2018-12-18T00:55:56.079Z,84.30
2018-12-18T00:58:25.227Z,83.40
2018-12-18T01:00:54.214Z,85.40
2018-12-18T01:03:23.259Z,86.30
2018-12-18T01:05:52.392Z,88.20
2018-12-18T01:08:21.600Z,86.50
2018-12-18T01:10:53.459Z,85.80
2018-12-18T01:13:22.591Z,86.00
2018-12-18T01:15:51.752Z,84.40
2018-12-18T01:18:20.880Z,86.40
2018-12-18T01:20:50.632Z,85.10
2018-12-18T01:23:19.812Z,84.80
2018-12-18T01:25:49.703Z,86.30
2018-12-18T01:28:18.920Z,88.70
2018-12-18T01:30:47.955Z,86.70
2018-12-18T01:33:17.093Z,84.80
2018-12-18T01:35:46.244Z,84.60
2018-12-18T01:38:15.508Z,84.30
2018-12-18T01:40:44.666Z,85.80
2018-12-18T01:43:13.800Z,83.80
2018-12-18T01:45:42.891Z,82.70
2018-12-18T01:48:12.092Z,85.60
2018-12-18T01:50:41.236Z,86.40
2018-12-18T01:53:10.357Z,88.60
2018-12-18T01:55:39.561Z,87.00
2018-12-18T01:58:08.782Z,86.60
2018-12-18T02:00:37.872Z,82.70
2018-12-18T02:03:07.151Z,85.60
2018-12-18T02:05:36.203Z,83.00
2018-12-18T02:08:05.260Z,85.00
2018-12-18T02:10:36.485Z,85.30
2018-12-18T02:13:05.684Z,85.40
2018-12-18T02:15:35.013Z,83.40
2018-12-18T02:18:04.175Z,81.40
2018-12-18T02:20:33.303Z,81.70
2018-12-18T02:23:02.359Z,83.40
2018-12-18T02:25:31.526Z,82.30
2018-12-18T02:28:00.660Z,82.40
2018-12-18T02:30:29.961Z,80.90
2018-12-18T02:32:58.955Z,79.80
2018-12-18T02:35:28.275Z,79.40
2018-12-18T02:37:57.452Z,79.60
2018-12-18T02:40:26.525Z,79.10
2018-12-18T02:42:55.741Z,80.00
2018-12-18T02:45:25.003Z,80.40
2018-12-18T02:47:54.166Z,80.40
2018-12-18T02:50:23.245Z,80.70
2018-12-18T02:52:52.551Z,80.70
2018-12-18T02:55:21.752Z,80.10
2018-12-18T02:57:50.833Z,79.60
2018-12-18T03:00:20.008Z,80.80
2018-12-18T03:02:49.166Z,81.50
2018-12-18T03:05:19.098Z,82.50
2018-12-18T03:07:48.371Z,83.10
2018-12-18T03:10:17.497Z,87.50
2018-12-18T03:12:46.816Z,85.60
2018-12-18T03:15:15.880Z,83.90
2018-12-18T03:17:45.006Z,85.60
2018-12-18T03:20:14.178Z,88.50
2018-12-18T03:22:43.503Z,86.50
2018-12-18T03:25:12.695Z,84.90
2018-12-18T03:27:41.736Z,85.50
2018-12-18T03:30:11.084Z,84.30
2018-12-18T03:32:48.059Z,84.40
2018-12-18T03:35:17.271Z,83.20
2018-12-18T03:37:46.309Z,83.30
2018-12-18T03:40:15.439Z,81.80
2018-12-18T03:42:44.613Z,80.30
2018-12-18T03:45:13.843Z,81.00
2018-12-18T03:47:42.890Z,80.20
2018-12-18T03:50:12.142Z,81.40
2018-12-18T03:52:41.379Z,81.20
2018-12-18T03:55:10.511Z,82.70
2018-12-18T03:57:39.691Z,82.00
2018-12-18T04:00:11.593Z,82.50
2018-12-18T04:02:40.791Z,83.10
2018-12-18T04:05:09.876Z,83.70
2018-12-18T04:07:39.139Z,83.00
2018-12-18T04:10:08.469Z,81.30
2018-12-18T04:12:37.625Z,80.20
2018-12-18T04:15:06.770Z,80.40
2018-12-18T04:17:35.924Z,80.60
2018-12-18T04:20:05.361Z,81.00
2018-12-18T04:22:34.416Z,78.80
2018-12-18T04:25:03.456Z,85.40
2018-12-18T04:27:32.667Z,84.30
2018-12-18T04:30:01.741Z,84.90
2018-12-18T04:32:30.904Z,86.40
2018-12-18T04:35:00.055Z,84.20
2018-12-18T04:37:29.149Z,84.50
2018-12-18T04:39:58.291Z,81.10
2018-12-18T04:42:27.744Z,82.90
2018-12-18T04:44:56.897Z,84.80
2018-12-18T04:47:26.027Z,83.70
2018-12-18T04:49:55.238Z,83.10
2018-12-18T04:52:24.306Z,82.60
2018-12-18T04:54:53.631Z,84.10
2018-12-18T04:57:22.695Z,86.50
2018-12-18T04:59:51.880Z,83.70
2018-12-18T05:02:20.994Z,83.80
2018-12-18T05:04:50.745Z,81.80
2018-12-18T05:07:19.909Z,81.30
2018-12-18T05:09:49.123Z,81.30
2018-12-18T05:12:18.193Z,84.00
2018-12-18T05:14:47.319Z,84.40
2018-12-18T05:17:16.492Z,82.10
2018-12-18T05:19:45.762Z,79.80
2018-12-18T05:22:14.876Z,80.70
2018-12-18T05:24:43.857Z,80.30
2018-12-18T05:27:12.967Z,80.00
2018-12-18T05:29:42.253Z,81.70
2018-12-18T05:32:11.491Z,81.40
2018-12-18T05:34:40.690Z,81.70
2018-12-18T05:37:09.862Z,83.50
2018-12-18T05:39:39.086Z,82.40
2018-12-18T05:42:08.156Z,81.60
2018-12-18T05:44:37.284Z,81.20
2018-12-18T05:47:07.261Z,81.20
2018-12-18T05:49:36.436Z,82.20
2018-12-18T05:52:05.667Z,83.10
2018-12-18T05:54:35.061Z,85.00
2018-12-18T05:57:04.702Z,82.60
2018-12-18T05:59:33.969Z,81.30
2018-12-18T06:02:03.140Z,87.10
2018-12-18T06:04:32.151Z,84.10
2018-12-18T06:07:01.784Z,82.80
2018-12-18T06:09:31.065Z,82.40
2018-12-18T06:12:00.335Z,82.30
2018-12-18T06:14:29.573Z,81.40
2018-12-18T06:16:58.716Z,80.80
2018-12-18T06:19:27.746Z,79.90
2018-12-18T06:21:56.949Z,82.40
2018-12-18T06:24:26.471Z,82.80
2018-12-18T06:26:55.715Z,81.70
2018-12-18T06:29:25.078Z,83.70
2018-12-18T06:31:55.388Z,84.30
2018-12-18T06:34:24.573Z,82.40
2018-12-18T06:36:53.792Z,84.50
2018-12-18T06:39:22.883Z,81.90
2018-12-18T06:41:52.032Z,80.90
2018-12-18T06:44:21.079Z,80.50
2018-12-18T06:46:50.120Z,81.60
2018-12-18T06:49:19.244Z,85.30
2018-12-18T06:51:48.672Z,84.60
2018-12-18T06:54:17.741Z,82.70
2018-12-18T06:56:47.012Z,85.50
2018-12-18T06:59:16.161Z,83.50
2018-12-18T07:01:45.306Z,82.90
2018-12-18T07:04:14.433Z,82.20
2018-12-18T07:06:43.577Z,83.30
2018-12-18T07:09:12.747Z,84.60
2018-12-18T07:11:41.775Z,84.30
2018-12-18T07:14:10.903Z,86.60
2018-12-18T07:16:40.128Z,85.30
2018-12-18T07:19:09.511Z,86.70
2018-12-18T07:21:38.760Z,84.40
2018-12-18T07:24:13.885Z,85.80
2018-12-18T07:26:39.427Z,84.00
2018-12-18T07:29:08.568Z,90.20
2018-12-18T07:31:37.771Z,86.30
2018-12-18T07:34:06.812Z,90.10
2018-12-18T07:36:36.034Z,88.50
2018-12-18T07:39:07.855Z,88.70
2018-12-18T07:41:37.011Z,89.60
2018-12-18T07:44:06.259Z,89.90
2018-12-18T07:46:35.499Z,88.10
2018-12-18T07:49:04.779Z,90.80
2018-12-18T07:51:34.305Z,91.00
2018-12-18T07:54:03.363Z,91.80
2018-12-18T07:56:32.511Z,90.20
2018-12-18T07:59:01.777Z,87.00
2018-12-18T08:01:31.013Z,89.40
2018-12-18T08:04:00.155Z,91.10
2018-12-18T08:06:29.380Z,89.60
2018-12-18T08:08:59.327Z,89.70
2018-12-18T08:11:28.496Z,88.70
2018-12-18T08:13:57.656Z,87.50
2018-12-18T08:16:27.199Z,89.20
2018-12-18T08:18:56.255Z,90.90
2018-12-18T08:21:25.389Z,91.80
2018-12-18T08:23:54.664Z,91.00
2018-12-18T08:26:23.771Z,88.70
2018-12-18T08:28:52.996Z,85.80
2018-12-18T08:31:22.055Z,88.50
2018-12-18T08:33:51.297Z,83.20
2018-12-18T08:36:20.368Z,87.60
2018-12-18T08:38:49.524Z,90.20
2018-12-18T08:41:18.674Z,87.20
2018-12-18T08:43:47.820Z,90.20
2018-12-18T08:46:16.864Z,88.20
2018-12-18T08:48:46.059Z,89.70
2018-12-18T08:51:15.132Z,84.80
2018-12-18T08:53:44.297Z,85.10
2018-12-18T08:56:13.446Z,86.40
2018-12-18T08:58:42.243Z,89.10
2018-12-18T09:01:11.460Z,90.00
2018-12-18T09:03:40.609Z,90.10
2018-12-18T09:06:09.596Z,90.00
2018-12-18T09:08:38.544Z,90.90
2018-12-18T09:11:07.587Z,90.20
2018-12-18T09:13:36.606Z,89.00
2018-12-18T09:16:09.809Z,90.70
2018-12-18T09:18:39.012Z,87.40
2018-12-18T09:21:08.163Z,91.10
2018-12-18T09:23:37.299Z,90.20
2018-12-18T09:26:06.659Z,90.40
2018-12-18T09:28:35.696Z,89.50
2018-12-18T09:31:04.851Z,90.00
2018-12-18T09:33:33.985Z,89.60
2018-12-18T09:36:03.043Z,90.40
2018-12-18T09:38:37.197Z,90.40
2018-12-18T09:41:11.450Z,89.50
2018-12-18T09:43:45.740Z,90.10
2018-12-18T09:46:14.891Z,89.20
2018-12-18T09:48:44.371Z,87.40
2018-12-18T09:51:14.115Z,85.40
2018-12-18T09:53:43.332Z,84.20
2018-12-18T09:56:12.395Z,84.20
2018-12-18T09:58:41.559Z,85.10
2018-12-18T10:01:10.744Z,86.20
2018-12-18T10:03:39.799Z,87.40
2018-12-18T10:06:08.772Z,86.30
2018-12-18T10:08:37.924Z,88.50
2018-12-18T10:11:07.059Z,87.30
2018-12-18T10:13:36.307Z,87.50
2018-12-18T10:16:05.503Z,88.40
2018-12-18T10:18:35.979Z,88.20
2018-12-18T10:21:06.010Z,87.10
2018-12-18T10:23:35.127Z,88.10
2018-12-18T10:26:04.395Z,86.00
2018-12-18T10:28:34.038Z,87.40
2018-12-18T10:31:03.259Z,88.80
2018-12-18T10:33:32.427Z,87.60
2018-12-18T10:36:03.096Z,87.90
2018-12-18T10:38:32.360Z,89.50
2018-12-18T10:41:02.027Z,89.70
2018-12-18T10:43:31.189Z,88.70
2018-12-18T10:46:00.331Z,88.70
2018-12-18T10:48:29.315Z,88.30
2018-12-18T10:50:58.448Z,90.00
2018-12-18T10:53:27.804Z,90.00
2018-12-18T10:55:56.963Z,90.50
2018-12-18T10:58:26.232Z,89.90
2018-12-18T11:01:00.413Z,87.70
2018-12-18T11:03:29.423Z,89.20
2018-12-18T11:05:58.444Z,87.10
2018-12-18T11:08:27.512Z,89.20
2018-12-18T11:10:56.555Z,89.60
2018-12-18T11:13:25.707Z,89.70
2018-12-18T11:15:54.714Z,87.90
2018-12-18T11:18:23.926Z,89.70
2018-12-18T11:20:53.039Z,89.70
2018-12-18T11:23:22.071Z,84.10
2018-12-18T11:25:51.111Z,86.90
2018-12-18T11:28:20.260Z,86.90
2018-12-18T11:30:49.415Z,87.50
2018-12-18T11:33:18.655Z,89.20
2018-12-18T11:35:47.672Z,86.10
2018-12-18T11:38:16.768Z,88.10
2018-12-18T11:40:46.092Z,87.80
2018-12-18T11:43:15.489Z,86.90
2018-12-18T11:45:44.710Z,86.40
2018-12-18T11:48:13.901Z,86.20
2018-12-18T11:50:43.181Z,88.60
2018-12-18T11:53:12.243Z,88.40
2018-12-18T11:55:41.400Z,85.80
2018-12-18T11:58:10.592Z,87.90
2018-12-18T12:00:39.929Z,86.70
2018-12-18T12:03:09.189Z,87.00
2018-12-18T12:05:38.385Z,87.60
2018-12-18T12:08:07.563Z,85.60
2018-12-18T12:10:36.576Z,86.80
2018-12-18T12:13:05.872Z,87.00
2018-12-18T12:15:34.867Z,87.30
2018-12-18T12:18:04.068Z,87.60
2018-12-18T12:20:33.307Z,85.90
2018-12-18T12:23:02.346Z,88.20
2018-12-18T12:25:31.529Z,84.90
2018-12-18T12:28:05.723Z,86.70
2018-12-18T12:30:35.619Z,84.80
2018-12-18T12:33:04.804Z,84.50
2018-12-18T12:35:33.978Z,86.00
2018-12-18T12:38:03.055Z,86.60
2018-12-18T12:40:32.216Z,84.10
2018-12-18T12:43:01.244Z,85.90
2018-12-18T12:45:30.519Z,86.60
2018-12-18T12:48:02.780Z,86.60
2018-12-18T12:50:32.034Z,87.80
2018-12-18T12:53:01.122Z,85.90
2018-12-18T12:55:30.148Z,85.50
2018-12-18T12:57:59.289Z,84.10
2018-12-18T13:00:28.507Z,83.90
2018-12-18T13:02:57.808Z,87.80
2018-12-18T13:05:26.836Z,85.70
2018-12-18T13:07:56.288Z,85.20
2018-12-18T13:10:25.605Z,88.30
2018-12-18T13:12:54.705Z,86.90
2018-12-18T13:15:23.861Z,87.20
2018-12-18T13:17:53.546Z,86.70
2018-12-18T13:20:22.603Z,87.70
2018-12-18T13:22:51.799Z,87.20
2018-12-18T13:25:20.935Z,86.50
2018-12-18T13:27:50.135Z,87.00
2018-12-18T13:30:19.156Z,88.00
2018-12-18T13:32:48.235Z,88.20
2018-12-18T13:35:17.460Z,88.50
2018-12-18T13:37:46.717Z,87.60
2018-12-18T13:40:15.738Z,88.20
2018-12-18T13:42:44.908Z,87.50
2018-12-18T13:45:14.027Z,88.30
2018-12-18T13:47:43.108Z,88.00
2018-12-18T13:50:12.228Z,87.30
2018-12-18T13:52:41.332Z,86.60
2018-12-18T13:55:10.407Z,90.00
2018-12-18T13:57:39.492Z,87.50
2018-12-18T14:00:08.936Z,86.70
2018-12-18T14:02:38.132Z,85.90
2018-12-18T14:05:07.319Z,85.20
2018-12-18T14:07:36.357Z,86.70
2018-12-18T14:10:06.596Z,89.70
2018-12-18T14:12:35.792Z,87.40
2018-12-18T14:15:05.548Z,87.90
2018-12-18T14:17:34.593Z,87.90
2018-12-18T14:20:03.612Z,89.80
2018-12-18T14:22:32.672Z,87.20
2018-12-18T14:25:01.931Z,89.00
2018-12-18T14:27:31.069Z,91.00
2018-12-18T14:30:00.308Z,90.80
2018-12-18T14:32:29.350Z,90.40
2018-12-18T14:34:58.512Z,90.50
2018-12-18T14:37:27.712Z,89.70
2018-12-18T14:39:56.641Z,89.50
2018-12-18T14:42:25.788Z,91.50
2018-12-18T14:44:54.931Z,91.50
2018-12-18T14:47:24.176Z,89.60
2018-12-18T14:49:53.496Z,91.50
2018-12-18T14:52:22.676Z,90.90
2018-12-18T14:54:51.976Z,90.30
2018-12-18T14:57:21.201Z,89.90
2018-12-18T14:59:50.396Z,91.00
2018-12-18T15:02:19.573Z,90.50
2018-12-18T15:04:48.619Z,91.90
2018-12-18T15:07:17.857Z,90.90
2018-12-18T15:09:47.016Z,91.90
2018-12-18T15:12:16.253Z,89.90
2018-12-18T15:14:45.276Z,91.10
2018-12-18T15:17:15.118Z,91.30
2018-12-18T15:19:44.276Z,91.50
2018-12-18T15:22:13.551Z,90.00
2018-12-18T15:24:42.871Z,90.40
2018-12-18T15:27:12.061Z,88.70
2018-12-18T15:29:41.100Z,90.50
2018-12-18T15:32:10.166Z,91.30
2018-12-18T15:34:39.209Z,90.00
2018-12-18T15:37:09.778Z,89.00
2018-12-18T15:39:39.000Z,91.90
2018-12-18T15:42:08.052Z,87.50
2018-12-18T15:44:37.267Z,92.10
2018-12-18T15:47:06.468Z,92.70
2018-12-18T15:49:35.664Z,90.40
2018-12-18T15:52:04.952Z,91.30
2018-12-18T15:54:34.108Z,91.20
2018-12-18T15:57:03.143Z,90.10
2018-12-18T15:59:32.353Z,92.40
2018-12-18T16:02:01.443Z,90.80
2018-12-18T16:04:30.647Z,91.70
2018-12-18T16:06:59.802Z,90.50
2018-12-18T16:09:28.927Z,90.00
2018-12-18T16:11:58.236Z,89.60
2018-12-18T16:14:27.411Z,92.40
2018-12-18T16:16:56.575Z,90.00
2018-12-18T16:19:25.960Z,91.40
2018-12-18T16:21:55.222Z,91.10
2018-12-18T16:24:24.397Z,86.70
2018-12-18T16:26:53.667Z,91.00
2018-12-18T16:29:22.700Z,89.80
2018-12-18T16:31:52.022Z,90.30
2018-12-18T16:34:21.096Z,92.30
2018-12-18T16:36:50.156Z,91.50
2018-12-18T16:39:19.190Z,90.50
2018-12-18T16:41:48.232Z,84.80
2018-12-18T16:44:17.381Z,85.10
2018-12-18T16:46:46.531Z,91.30
2018-12-18T16:49:15.660Z,88.80
2018-12-18T16:51:44.863Z,88.90
2018-12-18T16:54:14.159Z,90.40
2018-12-18T16:56:43.468Z,91.90
2018-12-18T16:59:12.687Z,91.20
2018-12-18T17:01:42.344Z,90.20
2018-12-18T17:04:11.451Z,90.10
2018-12-18T17:06:40.520Z,88.40
2018-12-18T17:09:09.760Z,87.40
2018-12-18T17:11:39.115Z,90.40
2018-12-18T17:14:08.152Z,92.60
2018-12-18T17:16:37.267Z,86.90
2018-12-18T17:19:06.450Z,89.20
2018-12-18T17:21:35.516Z,87.70
2018-12-18T17:24:04.707Z,90.40
2018-12-18T17:26:33.830Z,87.70
2018-12-18T17:29:03.031Z,88.80
2018-12-18T17:31:32.116Z,86.20
2018-12-18T17:34:01.404Z,88.90
2018-12-18T17:36:30.408Z,91.90
2018-12-18T17:38:59.571Z,83.50
2018-12-18T17:41:28.586Z,88.80
2018-12-18T17:43:57.772Z,89.30
2018-12-18T17:46:27.117Z,88.80
2018-12-18T17:48:56.273Z,90.80
2018-12-18T17:51:25.399Z,86.30
2018-12-18T17:53:54.465Z,86.80
2018-12-18T17:56:23.599Z,85.30
2018-12-18T17:58:52.856Z,88.30
2018-12-18T18:01:21.929Z,88.20
2018-12-18T18:03:51.088Z,90.00
2018-12-18T18:06:20.288Z,90.90
2018-12-18T18:08:49.491Z,89.00
2018-12-18T18:11:18.660Z,88.80
2018-12-18T18:13:47.823Z,87.80
2018-12-18T18:16:16.975Z,90.80
2018-12-18T18:18:46.131Z,88.50
2018-12-18T18:21:15.351Z,90.50
2018-12-18T18:23:44.430Z,89.20
2018-12-18T18:26:14.495Z,90.10
2018-12-18T18:28:43.612Z,90.10
2018-12-18T18:31:13.051Z,89.00
2018-12-18T18:33:42.280Z,88.50
2018-12-18T18:36:11.456Z,89.60
2018-12-18T18:38:40.558Z,92.00
2018-12-18T18:41:10.356Z,89.80
2018-12-18T18:43:40.136Z,89.30
2018-12-18T18:46:09.283Z,89.70
2018-12-18T18:48:39.033Z,90.80
2018-12-18T18:51:08.056Z,90.20
2018-12-18T18:53:37.578Z,91.30
2018-12-18T18:56:06.668Z,89.80
2018-12-18T18:58:35.867Z,90.50
2018-12-18T19:01:05.391Z,88.90
2018-12-18T19:03:34.776Z,88.90
2018-12-18T19:06:04.042Z,88.60
2018-12-18T19:08:33.138Z,89.20
2018-12-18T19:11:02.346Z,90.00
2018-12-18T19:13:31.371Z,89.40
2018-12-18T19:16:00.507Z,89.40
2018-12-18T19:18:29.645Z,90.40
2018-12-18T19:20:58.973Z,88.10
2018-12-18T19:23:28.143Z,87.90
2018-12-18T19:25:57.309Z,87.80
2018-12-18T19:28:26.367Z,88.40
2018-12-18T19:30:55.551Z,88.60
2018-12-18T19:33:24.620Z,87.50
2018-12-18T19:35:53.791Z,88.10
2018-12-18T19:38:22.926Z,88.40
2018-12-18T19:40:52.081Z,85.90
2018-12-18T19:43:21.115Z,86.80
2018-12-18T19:45:50.439Z,88.40
2018-12-18T19:48:19.732Z,87.50
2018-12-18T19:50:48.868Z,86.90
2018-12-18T19:53:18.151Z,88.90
2018-12-18T19:55:47.152Z,88.50
2018-12-18T19:58:16.264Z,87.50
2018-12-18T20:00:45.405Z,89.60
2018-12-18T20:03:14.718Z,87.20
2018-12-18T20:05:43.780Z,89.90
2018-12-18T20:08:13.003Z,86.70
2018-12-18T20:10:42.188Z,87.50
2018-12-18T20:13:11.829Z,86.00
2018-12-18T20:15:40.987Z,84.30
2018-12-18T20:18:10.143Z,86.20
2018-12-18T20:20:39.291Z,84.60
2018-12-18T20:23:08.465Z,84.20
2018-12-18T20:25:37.691Z,85.90
2018-12-18T20:28:06.888Z,87.90
2018-12-18T20:30:36.176Z,84.70
2018-12-18T20:33:05.324Z,85.70
2018-12-18T20:35:34.462Z,87.10
2018-12-18T20:38:03.520Z,86.30
2018-12-18T20:40:32.539Z,86.10
2018-12-18T20:43:01.620Z,88.00
2018-12-18T20:45:30.732Z,87.10
2018-12-18T20:47:59.802Z,85.50
2018-12-18T20:50:28.952Z,83.30
2018-12-18T20:52:58.093Z,86.60
2018-12-18T20:55:27.332Z,88.80
2018-12-18T20:57:56.484Z,86.60
2018-12-18T21:00:25.715Z,84.90
2018-12-18T21:02:54.764Z,83.30
2018-12-18T21:05:24.267Z,84.10
2018-12-18T21:07:53.831Z,88.90
2018-12-18T21:10:22.987Z,84.70
2018-12-18T21:12:54.445Z,83.90
2018-12-18T21:15:23.826Z,83.80
2018-12-18T21:17:53.062Z,85.70
2018-12-18T21:20:22.422Z,84.80
2018-12-18T21:22:52.465Z,85.80
2018-12-18T21:25:21.667Z,84.00
2018-12-18T21:27:52.421Z,84.00
2018-12-18T21:30:22.144Z,86.20
2018-12-18T21:32:51.924Z,84.10
2018-12-18T21:35:21.444Z,85.40
2018-12-18T21:37:51.162Z,84.00
2018-12-18T21:40:20.452Z,84.60
2018-12-18T21:42:49.754Z,83.70
2018-12-18T21:45:19.342Z,82.80
2018-12-18T21:47:49.356Z,86.70
2018-12-18T21:50:18.559Z,83.30
2018-12-18T21:52:47.751Z,82.60
2018-12-18T21:55:17.075Z,85.20
2018-12-18T21:57:46.484Z,83.20
2018-12-18T22:00:15.774Z,80.80
2018-12-18T22:02:45.273Z,83.20
2018-12-18T22:05:14.571Z,85.10
2018-12-18T22:07:43.900Z,81.60
2018-12-18T22:10:13.254Z,82.40
2018-12-18T22:12:42.565Z,82.60
2018-12-18T22:15:11.948Z,82.00
2018-12-18T22:17:41.171Z,82.70
2018-12-18T22:20:10.420Z,84.90
2018-12-18T22:22:39.780Z,83.60
2018-12-18T22:25:08.916Z,80.10
2018-12-18T22:27:38.272Z,80.80
2018-12-18T22:30:08.788Z,81.30
2018-12-18T22:32:38.195Z,81.20
2018-12-18T22:35:07.577Z,79.80
2018-12-18T22:37:36.699Z,82.70
2018-12-18T22:40:05.977Z,79.20
2018-12-18T22:42:35.172Z,84.00
2018-12-18T22:45:04.706Z,80.50
2018-12-18T22:47:33.902Z,83.80
2018-12-18T22:50:03.384Z,79.20
2018-12-18T22:52:32.915Z,80.60
2018-12-18T22:55:02.625Z,81.80
2018-12-18T22:57:32.407Z,82.10
2018-12-18T23:00:02.219Z,80.50
2018-12-18T23:02:31.756Z,78.60
2018-12-18T23:05:01.361Z,80.50
2018-12-18T23:07:30.594Z,78.50
2018-12-18T23:10:00.018Z,86.20
2018-12-18T23:12:29.252Z,78.30
2018-12-18T23:14:58.436Z,80.10
2018-12-18T23:17:27.443Z,80.40
2018-12-18T23:19:56.622Z,79.00
2018-12-18T23:22:25.756Z,81.20
2018-12-18T23:24:54.908Z,79.90
2018-12-18T23:27:24.127Z,82.00
2018-12-18T23:29:53.426Z,83.80
2018-12-18T23:32:22.586Z,78.70
2018-12-18T23:34:51.847Z,80.40
2018-12-18T23:37:21.056Z,78.90
2018-12-18T23:39:50.296Z,80.80
2018-12-18T23:42:19.364Z,77.60
2018-12-18T23:44:48.912Z,80.00
2018-12-18T23:47:17.970Z,80.80
2018-12-18T23:49:47.046Z,78.40
2018-12-18T23:52:16.345Z,76.30
2018-12-18T23:54:45.457Z,78.70
2018-12-18T23:57:14.483Z,80.00
2018-12-18T23:59:43.634Z,79.30
